Terminal Aerodrome Forecast
Issued by NWS

Home | Current Version | Previous Version | Text Only | Print | Product List | Glossary Off
Versions: 1 2 3 4 5 6 7 8 9 10 11 12 13 14 15 16 17 18 19 20 21 22 23 24

000
FTUS43 KMPX 272339
TAFRWF
TAF
KRWF 272339Z 2800/2824 15010KT P6SM -SHRA BKN050 OVC090
     FM280400 13010KT 5SM -RA SCT012 OVC020
     FM281200 12007KT 6SM -SHRA BKN012
     FM281500 08009KT P6SM OVC009
     FM282000 06008KT P6SM SCT020 BKN050=

USA.gov is the U.S. government's official web portal to all federal, state and local government web resources and services.